sensor_id;sensor_type;location;lat;lon;timestamp;pressure;altitude;pressure_sealevel;temperature
77414;BMP280;66486;49.992;19.164;2023-04-10T00:02:19;99699.41;;;7.66
77414;BMP280;66486;49.992;19.164;2023-04-10T00:04:46;99688.38;;;7.71
77414;BMP280;66486;49.992;19.164;2023-04-10T00:07:11;99687.47;;;8.00
77414;BMP280;66486;49.992;19.164;2023-04-10T00:09:38;99680.44;;;7.85
77414;BMP280;66486;49.992;19.164;2023-04-10T00:12:04;99687.34;;;7.86
77414;BMP280;66486;49.992;19.164;2023-04-10T00:14:30;99676.97;;;7.81
77414;BMP280;66486;49.992;19.164;2023-04-10T00:16:56;99673.16;;;7.82
77414;BMP280;66486;49.992;19.164;2023-04-10T00:19:22;99664.47;;;7.99
77414;BMP280;66486;49.992;19.164;2023-04-10T00:21:47;99669.44;;;7.94
77414;BMP280;66486;49.992;19.164;2023-04-10T00:24:13;99678.19;;;7.87
77414;BMP280;66486;49.992;19.164;2023-04-10T00:26:40;99666.19;;;7.74
77414;BMP280;66486;49.992;19.164;2023-04-10T00:29:06;99669.88;;;8.03
77414;BMP280;66486;49.992;19.164;2023-04-10T00:31:32;99658.88;;;8.22
77414;BMP280;66486;49.992;19.164;2023-04-10T00:33:58;99665.22;;;7.96
77414;BMP280;66486;49.992;19.164;2023-04-10T00:36:24;99663.75;;;8.02
77414;BMP280;66486;49.992;19.164;2023-04-10T00:38:51;99665.59;;;7.91
77414;BMP280;66486;49.992;19.164;2023-04-10T00:41:17;99668.94;;;7.85
77414;BMP280;66486;49.992;19.164;2023-04-10T00:43:44;99661.69;;;7.85
77414;BMP280;66486;49.992;19.164;2023-04-10T00:46:10;99671.38;;;8.00
77414;BMP280;66486;49.992;19.164;2023-04-10T00:48:36;99663.78;;;8.09
77414;BMP280;66486;49.992;19.164;2023-04-10T00:51:03;99660.69;;;8.04
77414;BMP280;66486;49.992;19.164;2023-04-10T00:53:31;99658.34;;;7.95
77414;BMP280;66486;49.992;19.164;2023-04-10T00:55:58;99669.47;;;8.01
77414;BMP280;66486;49.992;19.164;2023-04-10T00:58:25;99665.72;;;8.12
77414;BMP280;66486;49.992;19.164;2023-04-10T01:00:51;99665.66;;;8.02
77414;BMP280;66486;49.992;19.164;2023-04-10T01:03:18;99657.94;;;7.93
77414;BMP280;66486;49.992;19.164;2023-04-10T01:08:38;99663.91;;;8.27
77414;BMP280;66486;49.992;19.164;2023-04-10T01:14:11;99658.63;;;8.45
77414;BMP280;66486;49.992;19.164;2023-04-10T01:16:46;99657.78;;;8.30
77414;BMP280;66486;49.992;19.164;2023-04-10T01:22:20;99639.09;;;7.79
77414;BMP280;66486;49.992;19.164;2023-04-10T01:25:16;99668.31;;;7.98
77414;BMP280;66486;49.992;19.164;2023-04-10T01:30:46;99663.16;;;8.27
77414;BMP280;66486;49.992;19.164;2023-04-10T01:33:17;99664.19;;;8.11
77414;BMP280;66486;49.992;19.164;2023-04-10T01:35:47;99666.97;;;8.26
77414;BMP280;66486;49.992;19.164;2023-04-10T01:38:16;99662.78;;;8.32
77414;BMP280;66486;49.992;19.164;2023-04-10T01:40:44;99668.16;;;8.32
77414;BMP280;66486;49.992;19.164;2023-04-10T01:43:15;99659.25;;;8.13
77414;BMP280;66486;49.992;19.164;2023-04-10T01:45:43;99667.56;;;8.01
77414;BMP280;66486;49.992;19.164;2023-04-10T01:48:10;99667.19;;;8.03
77414;BMP280;66486;49.992;19.164;2023-04-10T01:50:37;99675.56;;;7.94
77414;BMP280;66486;49.992;19.164;2023-04-10T01:53:05;99675.31;;;8.17
77414;BMP280;66486;49.992;19.164;2023-04-10T01:55:32;99678.03;;;8.21
77414;BMP280;66486;49.992;19.164;2023-04-10T01:57:59;99674.50;;;8.06
77414;BMP280;66486;49.992;19.164;2023-04-10T02:00:26;99669.09;;;7.99
77414;BMP280;66486;49.992;19.164;2023-04-10T02:02:52;99668.72;;;8.07
77414;BMP280;66486;49.992;19.164;2023-04-10T02:05:19;99658.50;;;8.20
77414;BMP280;66486;49.992;19.164;2023-04-10T02:07:56;99663.09;;;8.16
77414;BMP280;66486;49.992;19.164;2023-04-10T02:10:50;99674.50;;;8.09
77414;BMP280;66486;49.992;19.164;2023-04-10T02:13:20;99679.84;;;8.02
77414;BMP280;66486;49.992;19.164;2023-04-10T02:15:49;99662.16;;;7.94
77414;BMP280;66486;49.992;19.164;2023-04-10T02:18:17;99668.31;;;7.98
77414;BMP280;66486;49.992;19.164;2023-04-10T02:20:44;99673.03;;;8.19
77414;BMP280;66486;49.992;19.164;2023-04-10T02:23:10;99678.75;;;8.14
77414;BMP280;66486;49.992;19.164;2023-04-10T02:25:36;99663.44;;;8.14
77414;BMP280;66486;49.992;19.164;2023-04-10T02:28:06;99668.34;;;8.02
77414;BMP280;66486;49.992;19.164;2023-04-10T02:30:33;99666.06;;;8.04
77414;BMP280;66486;49.992;19.164;2023-04-10T02:32:59;99656.03;;;7.97
77414;BMP280;66486;49.992;19.164;2023-04-10T02:35:25;99669.16;;;8.06
77414;BMP280;66486;49.992;19.164;2023-04-10T02:37:53;99662.22;;;8.01
77414;BMP280;66486;49.992;19.164;2023-04-10T02:40:19;99664.06;;;7.94
77414;BMP280;66486;49.992;19.164;2023-04-10T02:42:45;99670.19;;;7.91
77414;BMP280;66486;49.992;19.164;2023-04-10T02:45:12;99670.91;;;7.84
77414;BMP280;66486;49.992;19.164;2023-04-10T02:47:38;99657.41;;;7.77
77414;BMP280;66486;49.992;19.164;2023-04-10T02:50:04;99665.13;;;7.82
77414;BMP280;66486;49.992;19.164;2023-04-10T02:52:30;99675.09;;;7.85
77414;BMP280;66486;49.992;19.164;2023-04-10T02:54:56;99679.69;;;7.88
77414;BMP280;66486;49.992;19.164;2023-04-10T02:57:23;99681.47;;;8.21
77414;BMP280;66486;49.992;19.164;2023-04-10T02:59:50;99673.75;;;8.05
77414;BMP280;66486;49.992;19.164;2023-04-10T03:02:17;99667.56;;;8.01
77414;BMP280;66486;49.992;19.164;2023-04-10T03:04:43;99675.75;;;8.23
77414;BMP280;66486;49.992;19.164;2023-04-10T03:07:08;99671.06;;;8.09
77414;BMP280;66486;49.992;19.164;2023-04-10T03:09:35;99673.81;;;8.20
77414;BMP280;66486;49.992;19.164;2023-04-10T03:12:01;99672.63;;;8.13
77414;BMP280;66486;49.992;19.164;2023-04-10T03:14:27;99671.84;;;8.06
77414;BMP280;66486;49.992;19.164;2023-04-10T03:16:53;99672.94;;;8.01
77414;BMP280;66486;49.992;19.164;2023-04-10T03:19:19;99674.44;;;7.99
77414;BMP280;66486;49.992;19.164;2023-04-10T03:21:45;99664.50;;;8.06
77414;BMP280;66486;49.992;19.164;2023-04-10T03:24:12;99664.44;;;7.96
77414;BMP280;66486;49.992;19.164;2023-04-10T03:26:37;99666.72;;;7.90
77414;BMP280;66486;49.992;19.164;2023-04-10T03:29:03;99667.47;;;7.87
77414;BMP280;66486;49.992;19.164;2023-04-10T03:31:29;99654.41;;;7.82
77414;BMP280;66486;49.992;19.164;2023-04-10T03:33:55;99662.78;;;7.77
77414;BMP280;66486;49.992;19.164;2023-04-10T03:36:21;99659.97;;;7.63
77414;BMP280;66486;49.992;19.164;2023-04-10T03:38:47;99656.22;;;7.68
77414;BMP280;66486;49.992;19.164;2023-04-10T03:41:13;99655.16;;;7.79
77414;BMP280;66486;49.992;19.164;2023-04-10T03:43:39;99663.53;;;7.78
77414;BMP280;66486;49.992;19.164;2023-04-10T03:46:05;99661.91;;;7.63
77414;BMP280;66486;49.992;19.164;2023-04-10T03:48:31;99662.03;;;7.73
77414;BMP280;66486;49.992;19.164;2023-04-10T03:50:58;99667.88;;;7.96
77414;BMP280;66486;49.992;19.164;2023-04-10T03:53:24;99673.16;;;7.82
77414;BMP280;66486;49.992;19.164;2023-04-10T03:55:50;99660.47;;;7.72
77414;BMP280;66486;49.992;19.164;2023-04-10T03:58:17;99670.00;;;7.70
77414;BMP280;66486;49.992;19.164;2023-04-10T04:00:44;99679.16;;;7.65
77414;BMP280;66486;49.992;19.164;2023-04-10T04:03:10;99678.09;;;7.73
77414;BMP280;66486;49.992;19.164;2023-04-10T04:05:36;99680.06;;;7.83
77414;BMP280;66486;49.992;19.164;2023-04-10T04:08:02;99675.13;;;7.89
77414;BMP280;66486;49.992;19.164;2023-04-10T04:10:31;99677.78;;;7.89
77414;BMP280;66486;49.992;19.164;2023-04-10T04:12:57;99684.66;;;7.86
77414;BMP280;66486;49.992;19.164;2023-04-10T04:15:23;99687.34;;;7.86
77414;BMP280;66486;49.992;19.164;2023-04-10T04:17:49;99680.41;;;7.78
77414;BMP280;66486;49.992;19.164;2023-04-10T04:20:16;99684.66;;;7.86
77414;BMP280;66486;49.992;19.164;2023-04-10T04:22:42;99676.06;;;7.67
77414;BMP280;66486;49.992;19.164;2023-04-10T04:25:08;99677.97;;;7.66
77414;BMP280;66486;49.992;19.164;2023-04-10T04:27:36;99676.38;;;7.54
77414;BMP280;66486;49.992;19.164;2023-04-10T04:30:03;99685.69;;;7.71
77414;BMP280;66486;49.992;19.164;2023-04-10T04:32:30;99693.81;;;7.82
77414;BMP280;66486;49.992;19.164;2023-04-10T04:34:56;99688.75;;;7.70
77414;BMP280;66486;49.992;19.164;2023-04-10T04:37:22;99695.16;;;7.58
77414;BMP280;66486;49.992;19.164;2023-04-10T04:39:48;99688.19;;;7.50
77414;BMP280;66486;49.992;19.164;2023-04-10T04:42:14;99688.56;;;7.52
77414;BMP280;66486;49.992;19.164;2023-04-10T04:44:40;99694.75;;;7.56
77414;BMP280;66486;49.992;19.164;2023-04-10T04:47:06;99693.78;;;7.78
77414;BMP280;66486;49.992;19.164;2023-04-10T04:49:32;99690.25;;;7.67
77414;BMP280;66486;49.992;19.164;2023-04-10T04:51:58;99690.94;;;7.57
77414;BMP280;66486;49.992;19.164;2023-04-10T04:54:24;99691.31;;;7.59
77414;BMP280;66486;49.992;19.164;2023-04-10T04:56:50;99697.38;;;7.49
77414;BMP280;66486;49.992;19.164;2023-04-10T04:59:16;99691.66;;;7.54
77414;BMP280;66486;49.992;19.164;2023-04-10T05:01:42;99686.31;;;7.54
77414;BMP280;66486;49.992;19.164;2023-04-10T05:04:08;99690.72;;;7.76
77414;BMP280;66486;49.992;19.164;2023-04-10T05:06:33;99697.88;;;7.65
77414;BMP280;66486;49.992;19.164;2023-04-10T05:09:00;99700.03;;;7.49
77414;BMP280;66486;49.992;19.164;2023-04-10T05:11:26;99691.75;;;7.65
77414;BMP280;66486;49.992;19.164;2023-04-10T05:13:52;99697.41;;;7.56
77414;BMP280;66486;49.992;19.164;2023-04-10T05:16:18;99705.28;;;7.79
77414;BMP280;66486;49.992;19.164;2023-04-10T05:18:45;99713.94;;;7.62
77414;BMP280;66486;49.992;19.164;2023-04-10T05:21:11;99712.41;;;7.61
77414;BMP280;66486;49.992;19.164;2023-04-10T05:23:37;99713.84;;;7.51
77414;BMP280;66486;49.992;19.164;2023-04-10T05:26:03;99712.59;;;7.45
77414;BMP280;66486;49.992;19.164;2023-04-10T05:28:30;99718.78;;;7.52
77414;BMP280;66486;49.992;19.164;2023-04-10T05:30:56;99680.06;;;7.39
77414;BMP280;66486;49.992;19.164;2023-04-10T05:33:22;99717.84;;;7.75
77414;BMP280;66486;49.992;19.164;2023-04-10T05:35:48;99719.34;;;7.69
77414;BMP280;66486;49.992;19.164;2023-04-10T05:38:14;99717.41;;;7.62
77414;BMP280;66486;49.992;19.164;2023-04-10T05:40:44;99705.25;;;7.35
77414;BMP280;66486;49.992;19.164;2023-04-10T05:43:10;99718.44;;;7.50
77414;BMP280;66486;49.992;19.164;2023-04-10T05:45:36;99725.06;;;7.67
77414;BMP280;66486;49.992;19.164;2023-04-10T05:48:02;99726.31;;;7.77
77414;BMP280;66486;49.992;19.164;2023-04-10T05:50:28;99722.38;;;7.67
77414;BMP280;66486;49.992;19.164;2023-04-10T05:52:54;99721.38;;;7.82
77414;BMP280;66486;49.992;19.164;2023-04-10T05:55:20;99724.53;;;7.91
77414;BMP280;66486;49.992;19.164;2023-04-10T05:57:46;99718.31;;;7.80
77414;BMP280;66486;49.992;19.164;2023-04-10T06:00:12;99719.31;;;7.65
77414;BMP280;66486;49.992;19.164;2023-04-10T06:02:39;99717.91;;;7.78
77414;BMP280;66486;49.992;19.164;2023-04-10T06:05:06;99713.63;;;7.70
77414;BMP280;66486;49.992;19.164;2023-04-10T06:07:32;99716.97;;;7.60
77414;BMP280;66486;49.992;19.164;2023-04-10T06:09:58;99713.53;;;7.63
77414;BMP280;66486;49.992;19.164;2023-04-10T06:12:24;99716.22;;;7.63
77414;BMP280;66486;49.992;19.164;2023-04-10T06:14:50;99716.56;;;7.58
77414;BMP280;66486;49.992;19.164;2023-04-10T06:17:16;99720.47;;;7.68
77414;BMP280;66486;49.992;19.164;2023-04-10T06:19:42;99718.56;;;7.68
77414;BMP280;66486;49.992;19.164;2023-04-10T06:22:08;99712.91;;;7.73
77414;BMP280;66486;49.992;19.164;2023-04-10T06:24:34;99723.63;;;7.73
77414;BMP280;66486;49.992;19.164;2023-04-10T06:27:01;99718.94;;;7.67
77414;BMP280;66486;49.992;19.164;2023-04-10T06:29:27;99720.94;;;7.73
77414;BMP280;66486;49.992;19.164;2023-04-10T06:31:53;99731.25;;;7.75
77414;BMP280;66486;49.992;19.164;2023-04-10T06:34:19;99727.25;;;7.95
77414;BMP280;66486;49.992;19.164;2023-04-10T06:36:45;99717.34;;;8.02
77414;BMP280;66486;49.992;19.164;2023-04-10T06:39:11;99721.47;;;7.96
77414;BMP280;66486;49.992;19.164;2023-04-10T06:41:37;99724.13;;;7.89
77414;BMP280;66486;49.992;19.164;2023-04-10T06:44:03;99720.28;;;7.87
77414;BMP280;66486;49.992;19.164;2023-04-10T06:46:29;99721.03;;;7.84
77414;BMP280;66486;49.992;19.164;2023-04-10T06:48:55;99724.50;;;7.88
77414;BMP280;66486;49.992;19.164;2023-04-10T06:51:21;99729.50;;;7.93
77414;BMP280;66486;49.992;19.164;2023-04-10T06:53:47;99729.25;;;8.05
77414;BMP280;66486;49.992;19.164;2023-04-10T06:56:13;99724.16;;;7.96
77414;BMP280;66486;49.992;19.164;2023-04-10T06:58:39;99742.81;;;7.86
77414;BMP280;66486;49.992;19.164;2023-04-10T07:01:06;99742.22;;;8.06
77414;BMP280;66486;49.992;19.164;2023-04-10T07:03:31;99733.44;;;8.02
77414;BMP280;66486;49.992;19.164;2023-04-10T07:05:59;99742.94;;;8.00
77414;BMP280;66486;49.992;19.164;2023-04-10T07:08:26;99756.16;;;8.23
77414;BMP280;66486;49.992;19.164;2023-04-10T07:10:52;99748.16;;;8.30
77414;BMP280;66486;49.992;19.164;2023-04-10T07:13:18;99741.50;;;8.09
77414;BMP280;66486;49.992;19.164;2023-04-10T07:15:44;99735.03;;;8.14
77414;BMP280;66486;49.992;19.164;2023-04-10T07:18:10;99737.75;;;8.21
77414;BMP280;66486;49.992;19.164;2023-04-10T07:20:36;99728.13;;;8.09
77414;BMP280;66486;49.992;19.164;2023-04-10T07:23:02;99732.75;;;8.12
77414;BMP280;66486;49.992;19.164;2023-04-10T07:25:28;99733.91;;;8.15
77414;BMP280;66486;49.992;19.164;2023-04-10T07:27:54;99733.50;;;8.13
77414;BMP280;66486;49.992;19.164;2023-04-10T07:30:20;99732.66;;;8.02
77414;BMP280;66486;49.992;19.164;2023-04-10T07:32:46;99738.38;;;8.00
77414;BMP280;66486;49.992;19.164;2023-04-10T07:35:13;99733.47;;;8.06
77414;BMP280;66486;49.992;19.164;2023-04-10T07:37:38;99739.69;;;8.21
77414;BMP280;66486;49.992;19.164;2023-04-10T07:40:06;99738.72;;;8.50
77414;BMP280;66486;49.992;19.164;2023-04-10T07:42:32;99729.53;;;8.54
77414;BMP280;66486;49.992;19.164;2023-04-10T07:44:58;99740.75;;;8.70
77414;BMP280;66486;49.992;19.164;2023-04-10T07:47:24;99742.13;;;8.43
77414;BMP280;66486;49.992;19.164;2023-04-10T07:49:50;99731.00;;;8.41
77414;BMP280;66486;49.992;19.164;2023-04-10T07:52:16;99739.47;;;8.47
77414;BMP280;66486;49.992;19.164;2023-04-10T07:54:43;99724.09;;;8.40
77414;BMP280;66486;49.992;19.164;2023-04-10T07:57:08;99728.34;;;8.48
77414;BMP280;66486;49.992;19.164;2023-04-10T07:59:35;99728.34;;;8.45
77414;BMP280;66486;49.992;19.164;2023-04-10T08:02:00;99726.91;;;8.61
77414;BMP280;66486;49.992;19.164;2023-04-10T08:04:27;99741.44;;;8.53
77414;BMP280;66486;49.992;19.164;2023-04-10T08:06:52;99738.09;;;8.77
77414;BMP280;66486;49.992;19.164;2023-04-10T08:09:19;99732.72;;;8.77
77414;BMP280;66486;49.992;19.164;2023-04-10T08:11:45;99740.81;;;8.88
77414;BMP280;66486;49.992;19.164;2023-04-10T08:14:11;99744.28;;;8.85
77414;BMP280;66486;49.992;19.164;2023-04-10T08:16:37;99737.34;;;8.81
77414;BMP280;66486;49.992;19.164;2023-04-10T08:19:04;99737.75;;;8.83
77414;BMP280;66486;49.992;19.164;2023-04-10T08:21:30;99736.56;;;8.77
77414;BMP280;66486;49.992;19.164;2023-04-10T08:24:02;99744.97;;;8.71
77414;BMP280;66486;49.992;19.164;2023-04-10T08:26:28;99738.88;;;8.82
77414;BMP280;66486;49.992;19.164;2023-04-10T08:28:56;99743.91;;;8.90
77414;BMP280;66486;49.992;19.164;2023-04-10T08:31:23;99730.16;;;9.06
77414;BMP280;66486;49.992;19.164;2023-04-10T08:33:50;99732.47;;;8.97
77414;BMP280;66486;49.992;19.164;2023-04-10T08:36:16;99731.19;;;8.80
77414;BMP280;66486;49.992;19.164;2023-04-10T08:38:43;99727.84;;;8.94
77414;BMP280;66486;49.992;19.164;2023-04-10T08:41:13;99729.00;;;9.00
77414;BMP280;66486;49.992;19.164;2023-04-10T08:43:40;99730.56;;;9.08
77414;BMP280;66486;49.992;19.164;2023-04-10T08:46:06;99728.66;;;9.12
77414;BMP280;66486;49.992;19.164;2023-04-10T08:48:45;99717.09;;;8.97
77414;BMP280;66486;49.992;19.164;2023-04-10T08:51:18;99726.00;;;9.19
77414;BMP280;66486;49.992;19.164;2023-04-10T08:53:47;99722.91;;;9.17
77414;BMP280;66486;49.992;19.164;2023-04-10T08:56:16;99727.16;;;9.35
77414;BMP280;66486;49.992;19.164;2023-04-10T08:58:44;99725.22;;;9.25
77414;BMP280;66486;49.992;19.164;2023-04-10T09:01:09;99725.63;;;9.24
77414;BMP280;66486;49.992;19.164;2023-04-10T09:03:37;99729.47;;;9.23
77414;BMP280;66486;49.992;19.164;2023-04-10T09:06:03;99727.13;;;9.11
77414;BMP280;66486;49.992;19.164;2023-04-10T09:08:30;99729.00;;;9.07
77414;BMP280;66486;49.992;19.164;2023-04-10T09:10:57;99722.53;;;9.11
77414;BMP280;66486;49.992;19.164;2023-04-10T09:13:37;99725.28;;;9.64
77414;BMP280;66486;49.992;19.164;2023-04-10T09:16:04;99723.38;;;9.68
77414;BMP280;66486;49.992;19.164;2023-04-10T09:18:50;99726.84;;;9.79
77414;BMP280;66486;49.992;19.164;2023-04-10T09:21:18;99727.97;;;9.61
77414;BMP280;66486;49.992;19.164;2023-04-10T09:23:46;99724.91;;;9.73
77414;BMP280;66486;49.992;19.164;2023-04-10T09:26:29;99723.38;;;9.75
77414;BMP280;66486;49.992;19.164;2023-04-10T09:28:59;99730.28;;;9.66
77414;BMP280;66486;49.992;19.164;2023-04-10T09:31:38;99720.69;;;9.65
77414;BMP280;66486;49.992;19.164;2023-04-10T09:36:35;99708.81;;;9.59
77414;BMP280;66486;49.992;19.164;2023-04-10T09:39:03;99718.41;;;10.02
77414;BMP280;66486;49.992;19.164;2023-04-10T09:41:30;99716.09;;;9.65
77414;BMP280;66486;49.992;19.164;2023-04-10T09:44:07;99715.31;;;9.75
77414;BMP280;66486;49.992;19.164;2023-04-10T09:46:33;99709.16;;;9.75
77414;BMP280;66486;49.992;19.164;2023-04-10T09:49:00;99714.53;;;10.07
77414;BMP280;66486;49.992;19.164;2023-04-10T09:51:34;99715.34;;;10.04
77414;BMP280;66486;49.992;19.164;2023-04-10T09:54:01;99709.94;;;9.82
77414;BMP280;66486;49.992;19.164;2023-04-10T09:56:28;99709.53;;;10.05
77414;BMP280;66486;49.992;19.164;2023-04-10T09:58:59;99710.34;;;9.95
77414;BMP280;66486;49.992;19.164;2023-04-10T10:01:26;99706.50;;;9.99
77414;BMP280;66486;49.992;19.164;2023-04-10T10:04:03;99692.66;;;9.80
77414;BMP280;66486;49.992;19.164;2023-04-10T10:06:32;99693.06;;;9.92
77414;BMP280;66486;49.992;19.164;2023-04-10T10:09:02;99701.88;;;9.86
77414;BMP280;66486;49.992;19.164;2023-04-10T10:11:32;99705.75;;;9.74
77414;BMP280;66486;49.992;19.164;2023-04-10T10:14:03;99704.19;;;9.98
77414;BMP280;66486;49.992;19.164;2023-04-10T10:16:33;99705.66;;;10.24
77414;BMP280;66486;49.992;19.164;2023-04-10T10:19:18;99700.69;;;10.15
77414;BMP280;66486;49.992;19.164;2023-04-10T10:21:49;99700.69;;;10.05
77414;BMP280;66486;49.992;19.164;2023-04-10T10:24:18;99700.31;;;10.13
77414;BMP280;66486;49.992;19.164;2023-04-10T10:26:46;99699.16;;;10.18
77414;BMP280;66486;49.992;19.164;2023-04-10T10:29:14;99699.94;;;10.00
77414;BMP280;66486;49.992;19.164;2023-04-10T10:31:42;99700.69;;;10.08
77414;BMP280;66486;49.992;19.164;2023-04-10T10:34:08;99701.09;;;10.17
77414;BMP280;66486;49.992;19.164;2023-04-10T10:36:34;99689.19;;;10.18
77414;BMP280;66486;49.992;19.164;2023-04-10T10:41:37;99679.13;;;10.43
77414;BMP280;66486;49.992;19.164;2023-04-10T10:44:12;99679.44;;;10.56
77414;BMP280;66486;49.992;19.164;2023-04-10T10:47:00;99667.19;;;10.44
77414;BMP280;66486;49.992;19.164;2023-04-10T10:52:36;99669.47;;;10.49
77414;BMP280;66486;49.992;19.164;2023-04-10T10:57:56;99668.72;;;10.42
77414;BMP280;66486;49.992;19.164;2023-04-10T11:00:24;99668.72;;;10.42
77414;BMP280;66486;49.992;19.164;2023-04-10T11:05:49;99664.88;;;10.46
77414;BMP280;66486;49.992;19.164;2023-04-10T11:08:17;99662.50;;;10.59
77414;BMP280;66486;49.992;19.164;2023-04-10T11:11:05;99662.13;;;10.57
77414;BMP280;66486;49.992;19.164;2023-04-10T11:13:33;99654.13;;;10.39
77414;BMP280;66486;49.992;19.164;2023-04-10T11:16:00;99650.69;;;10.42
77414;BMP280;66486;49.992;19.164;2023-04-10T11:21:19;99652.63;;;10.35
77414;BMP280;66486;49.992;19.164;2023-04-10T11:29:05;99643.72;;;10.48
77414;BMP280;66486;49.992;19.164;2023-04-10T11:31:33;99649.50;;;10.50
77414;BMP280;66486;49.992;19.164;2023-04-10T11:34:04;99645.19;;;10.63
77414;BMP280;66486;49.992;19.164;2023-04-10T11:36:31;99641.31;;;10.72
77414;BMP280;66486;49.992;19.164;2023-04-10T11:39:00;99630.16;;;10.77
77414;BMP280;66486;49.992;19.164;2023-04-10T11:41:36;99634.34;;;10.78
77414;BMP280;66486;49.992;19.164;2023-04-10T11:44:06;99629.66;;;10.89
77414;BMP280;66486;49.992;19.164;2023-04-10T11:46:37;99619.38;;;10.77
77414;BMP280;66486;49.992;19.164;2023-04-10T11:49:04;99616.59;;;10.91
77414;BMP280;66486;49.992;19.164;2023-04-10T11:51:32;99613.44;;;10.99
77414;BMP280;66486;49.992;19.164;2023-04-10T11:54:12;99616.75;;;11.24
77414;BMP280;66486;49.992;19.164;2023-04-10T11:56:40;99617.13;;;11.23
77414;BMP280;66486;49.992;19.164;2023-04-10T11:59:07;99609.69;;;11.38
77414;BMP280;66486;49.992;19.164;2023-04-10T12:01:41;99607.44;;;11.70
77414;BMP280;66486;49.992;19.164;2023-04-10T12:04:15;99599.19;;;11.84
77414;BMP280;66486;49.992;19.164;2023-04-10T12:06:51;99595.56;;;12.01
77414;BMP280;66486;49.992;19.164;2023-04-10T12:09:19;99599.72;;;12.06
77414;BMP280;66486;49.992;19.164;2023-04-10T12:12:06;99599.94;;;12.52
77414;BMP280;66486;49.992;19.164;2023-04-10T12:14:37;99589.59;;;12.74
77414;BMP280;66486;49.992;19.164;2023-04-10T12:17:06;99588.72;;;13.03
77414;BMP280;66486;49.992;19.164;2023-04-10T12:19:33;99583.88;;;13.38
77414;BMP280;66486;49.992;19.164;2023-04-10T12:22:00;99586.00;;;13.50
77414;BMP280;66486;49.992;19.164;2023-04-10T12:24:47;99577.53;;;13.48
77414;BMP280;66486;49.992;19.164;2023-04-10T12:27:26;99581.13;;;13.61
77414;BMP280;66486;49.992;19.164;2023-04-10T12:29:55;99561.50;;;13.37
77414;BMP280;66486;49.992;19.164;2023-04-10T12:32:22;99567.72;;;13.34
77414;BMP280;66486;49.992;19.164;2023-04-10T12:34:53;99561.00;;;12.99
77414;BMP280;66486;49.992;19.164;2023-04-10T12:37:23;99559.00;;;13.03
77414;BMP280;66486;49.992;19.164;2023-04-10T12:39:48;99545.81;;;12.82
77414;BMP280;66486;49.992;19.164;2023-04-10T12:42:16;99551.53;;;12.88
77414;BMP280;66486;49.992;19.164;2023-04-10T12:44:57;99533.97;;;12.76
77414;BMP280;66486;49.992;19.164;2023-04-10T12:47:25;99548.50;;;12.86
77414;BMP280;66486;49.992;19.164;2023-04-10T12:50:07;99540.34;;;12.89
77414;BMP280;66486;49.992;19.164;2023-04-10T12:52:37;99533.56;;;13.01
77414;BMP280;66486;49.992;19.164;2023-04-10T12:57:40;99527.53;;;13.36
77414;BMP280;66486;49.992;19.164;2023-04-10T13:00:07;99530.94;;;13.60
77414;BMP280;66486;49.992;19.164;2023-04-10T13:02:40;99524.25;;;13.84
77414;BMP280;66486;49.992;19.164;2023-04-10T13:05:22;99477.75;;;13.33
77414;BMP280;66486;49.992;19.164;2023-04-10T13:08:00;99497.53;;;13.50
77414;BMP280;66486;49.992;19.164;2023-04-10T13:10:25;99510.69;;;13.68
77414;BMP280;66486;49.992;19.164;2023-04-10T13:12:51;99511.06;;;13.70
77414;BMP280;66486;49.992;19.164;2023-04-10T13:15:17;99507.63;;;13.66
77414;BMP280;66486;49.992;19.164;2023-04-10T13:17:44;99505.69;;;13.47
77414;BMP280;66486;49.992;19.164;2023-04-10T13:20:10;99500.56;;;13.32
77414;BMP280;66486;49.992;19.164;2023-04-10T13:22:37;99497.31;;;13.41
77414;BMP280;66486;49.992;19.164;2023-04-10T13:25:03;99495.38;;;13.42
77414;BMP280;66486;49.992;19.164;2023-04-10T13:27:30;99486.91;;;13.40
77414;BMP280;66486;49.992;19.164;2023-04-10T13:29:56;99484.63;;;13.38
77414;BMP280;66486;49.992;19.164;2023-04-10T13:32:22;99467.66;;;13.38
77414;BMP280;66486;49.992;19.164;2023-04-10T13:34:47;99479.56;;;13.40
77414;BMP280;66486;49.992;19.164;2023-04-10T13:37:14;99456.06;;;13.37
77414;BMP280;66486;49.992;19.164;2023-04-10T13:39:39;99452.88;;;13.42
77414;BMP280;66486;49.992;19.164;2023-04-10T13:42:08;99465.41;;;13.72
77414;BMP280;66486;49.992;19.164;2023-04-10T13:44:34;99456.78;;;13.77
77414;BMP280;66486;49.992;19.164;2023-04-10T13:47:00;99451.56;;;13.70
77414;BMP280;66486;49.992;19.164;2023-04-10T13:49:26;99448.94;;;13.82
77414;BMP280;66486;49.992;19.164;2023-04-10T13:51:58;99440.06;;;13.82
77414;BMP280;66486;49.992;19.164;2023-04-10T13:54:24;99435.25;;;13.73
77414;BMP280;66486;49.992;19.164;2023-04-10T13:56:51;99436.78;;;13.90
77414;BMP280;66486;49.992;19.164;2023-04-10T13:59:19;99430.94;;;13.92
77414;BMP280;66486;49.992;19.164;2023-04-10T14:01:45;99414.56;;;13.99
77414;BMP280;66486;49.992;19.164;2023-04-10T14:04:12;99415.91;;;14.07
77414;BMP280;66486;49.992;19.164;2023-04-10T14:06:38;99419.28;;;14.11
77414;BMP280;66486;49.992;19.164;2023-04-10T14:09:04;99411.88;;;13.99
77414;BMP280;66486;49.992;19.164;2023-04-10T14:11:31;99414.38;;;13.90
77414;BMP280;66486;49.992;19.164;2023-04-10T14:13:57;99411.78;;;14.02
77414;BMP280;66486;49.992;19.164;2023-04-10T14:16:23;99416.84;;;14.17
77414;BMP280;66486;49.992;19.164;2023-04-10T14:18:49;99412.19;;;14.17
77414;BMP280;66486;49.992;19.164;2023-04-10T14:21:15;99414.97;;;14.30
77414;BMP280;66486;49.992;19.164;2023-04-10T14:23:41;99410.81;;;14.25
77414;BMP280;66486;49.992;19.164;2023-04-10T14:26:07;99402.28;;;14.43
77414;BMP280;66486;49.992;19.164;2023-04-10T14:28:33;99385.53;;;14.32
77414;BMP280;66486;49.992;19.164;2023-04-10T14:31:00;99400.25;;;14.15
77414;BMP280;66486;49.992;19.164;2023-04-10T14:33:26;99391.44;;;14.27
77414;BMP280;66486;49.992;19.164;2023-04-10T14:35:52;99398.09;;;14.54
77414;BMP280;66486;49.992;19.164;2023-04-10T14:38:19;99390.44;;;14.37
77414;BMP280;66486;49.992;19.164;2023-04-10T14:40:45;99395.78;;;14.24
77414;BMP280;66486;49.992;19.164;2023-04-10T14:43:14;99389.22;;;14.38
77414;BMP280;66486;49.992;19.164;2023-04-10T14:45:40;99375.34;;;14.36